Redwood Falls, Minnesota
Current Conditions -  °F | °C
As of 3:53 AM on Tuesday 27 Jan 2015 (Local Time) from KRWF Reporting Station
Overcast Overcast  
Wind Chill: 31°   Ceiling: 800
Heat Index: 31°   Visibility: 9mi
Dew Point: 28°   Wind: 0mph
Humidity: 89%   Direction: NA
Pressure: 30.07"   Gusts: NA
Location:  44.54°N, 95.12°W
Report Text: KRWF 270953Z AUTO 00000KT 9SM OVC008 M01/M02 A3007 RMK AO2 SLP193 T10061022
Loading
Personal Weather Stations






























Interactive Weather Map New forecast layout! Learn more

10-Day Weather Forecast

Advertisements
Track Severe Weather on mobile